Time;durP1;ratioP1;P1;durP2;ratioP2;P2;SDS_P1;SDS_P2;PMS_P1;PMS_P2;Temp;Humidity;BMP_temperature;BMP_pressure;BME280_temperature;BME280_humidity;BME280_pressure;Samples;Min_cycle;Max_cycle;Signal;HPM_P1;HPM_P2
2023/04/30 00:02:10;;;;;;;;;25.33;22.33;;;;;14.77;52.30;101270.88;4938665;28;45454;-54
2023/04/30 00:04:35;;;;;;;;;23.67;22.33;;;;;14.78;52.41;101269.13;4938599;28;45460;-53
2023/04/30 00:07:01;;;;;;;;;22.33;19.33;;;;;14.78;52.54;101277.91;4955785;28;45539;-55
2023/04/30 00:09:27;;;;;;;;;23.67;23.67;;;;;14.76;53.07;101285.06;4947666;28;45398;-54
2023/04/30 00:11:52;;;;;;;;;22.33;20.67;;;;;14.76;52.98;101276.25;4938466;28;46671;-55
2023/04/30 00:14:17;;;;;;;;;20.67;19.67;;;;;14.76;52.90;101281.56;4938434;28;45412;-53
2023/04/30 00:16:43;;;;;;;;;23.00;22.00;;;;;14.74;52.51;101273.66;4938687;28;45408;-56
2023/04/30 00:19:08;;;;;;;;;22.33;19.67;;;;;14.75;53.25;101271.91;4938681;28;45625;-55
2023/04/30 00:21:34;;;;;;;;;24.00;24.00;;;;;14.74;53.05;101268.38;4938450;28;45854;-55
2023/04/30 00:23:59;;;;;;;;;21.00;20.33;;;;;14.76;53.22;101266.53;4938368;28;45444;-55
2023/04/30 00:26:25;;;;;;;;;21.67;20.67;;;;;14.78;53.15;101271.78;4938610;28;45540;-56
2023/04/30 00:28:50;;;;;;;;;25.00;22.67;;;;;14.77;53.35;101270.88;4938500;28;45666;-56
2023/04/30 00:31:16;;;;;;;;;25.00;22.00;;;;;14.78;53.69;101271.78;4938284;28;45563;-55
2023/04/30 00:33:41;;;;;;;;;26.00;26.00;;;;;14.71;53.26;101263.22;4938334;28;45458;-56
2023/04/30 00:36:06;;;;;;;;;30.00;25.67;;;;;14.73;53.80;101255.22;4944209;28;45316;-53
2023/04/30 00:38:31;;;;;;;;;28.33;27.33;;;;;14.72;53.32;101258.78;4957528;28;45452;-54
2023/04/30 00:40:57;;;;;;;;;25.67;24.67;;;;;14.72;53.35;101257.00;4957533;28;45538;-54
2023/04/30 00:43:23;;;;;;;;;33.33;31.00;;;;;14.72;52.76;101259.66;4958026;28;45471;-54
2023/04/30 00:45:48;;;;;;;;;32.33;29.33;;;;;14.69;53.28;101257.09;4956177;28;45690;-54
2023/04/30 00:48:14;;;;;;;;;32.67;29.33;;;;;14.68;53.69;101246.59;4957482;28;45550;-54
2023/04/30 00:50:42;;;;;;;;;30.33;26.33;;;;;14.69;53.58;101249.16;4951615;28;46297;-53
2023/04/30 00:53:07;;;;;;;;;29.33;26.33;;;;;14.70;53.54;101248.25;4937994;28;45388;-51
2023/04/30 00:55:33;;;;;;;;;30.00;28.67;;;;;14.68;53.62;101247.47;4943544;28;45445;-54
2023/04/30 00:57:59;;;;;;;;;24.00;23.00;;;;;14.64;53.50;101237.06;4957342;28;45529;-54
2023/04/30 01:00:26;;;;;;;;;29.67;29.33;;;;;14.66;53.62;101240.50;4938320;28;45476;-56
2023/04/30 01:02:51;;;;;;;;;25.33;24.33;;;;;14.65;53.66;101239.66;4937535;28;45531;-55
2023/04/30 01:05:17;;;;;;;;;29.00;25.67;;;;;14.63;53.62;101238.84;4937960;28;46280;-53
2023/04/30 01:07:45;;;;;;;;;29.67;27.33;;;;;14.62;53.91;101242.44;4937843;28;45492;-53
2023/04/30 01:10:14;;;;;;;;;29.00;26.67;;;;;14.61;53.90;101245.97;4937707;28;46584;-53
2023/04/30 01:12:48;;;;;;;;;28.00;26.33;;;;;14.61;54.22;101242.47;4937629;28;45462;-56
2023/04/30 01:15:38;;;;;;;;;25.33;23.67;;;;;14.60;53.78;101235.47;4937660;28;45416;-53
2023/04/30 01:18:16;;;;;;;;;30.67;28.67;;;;;14.58;54.01;101232.88;4948760;28;45586;-54
2023/04/30 01:20:51;;;;;;;;;27.33;26.00;;;;;14.58;54.57;101238.16;4956838;28;45478;-55
2023/04/30 01:23:45;;;;;;;;;25.33;24.33;;;;;14.56;54.27;101235.59;4956903;28;45497;-55
2023/04/30 01:26:28;;;;;;;;;30.00;25.33;;;;;14.55;54.41;101230.38;4956885;28;45379;-54
2023/04/30 01:28:56;;;;;;;;;30.33;26.33;;;;;14.50;53.85;101227.00;4956433;28;45614;-54
2023/04/30 01:31:23;;;;;;;;;27.00;25.67;;;;;14.47;54.61;101225.34;4956419;28;45478;-56
2023/04/30 01:33:48;;;;;;;;;30.67;27.00;;;;;14.46;54.43;101226.28;4956423;28;45474;-56
2023/04/30 01:36:38;;;;;;;;;28.33;25.33;;;;;14.41;53.83;101219.47;4954936;28;56002;-53
2023/04/30 01:39:24;;;;;;;;;26.00;24.67;;;;;14.45;54.16;101219.25;4956820;28;45450;-56
2023/04/30 01:42:10;;;;;;;;;28.33;26.33;;;;;14.44;53.98;101217.53;4957145;28;45580;-54
2023/04/30 01:45:11;;;;;;;;;30.33;24.67;;;;;14.40;54.03;101215.97;4956345;28;45517;-56
2023/04/30 01:47:48;;;;;;;;;23.67;20.00;;;;;14.41;54.63;101219.47;4956613;28;45492;-53
2023/04/30 01:50:31;;;;;;;;;27.67;26.33;;;;;14.36;54.72;101217.84;4955997;28;45399;-55
2023/04/30 01:53:05;;;;;;;;;26.33;23.33;;;;;14.41;54.53;101230.06;4956331;28;46488;-54
2023/04/30 01:55:41;;;;;;;;;31.67;25.67;;;;;14.42;53.92;101226.47;4956160;28;45435;-55
2023/04/30 01:58:11;;;;;;;;;26.00;22.67;;;;;14.40;54.17;101218.59;4956570;28;45501;-56
2023/04/30 02:00:36;;;;;;;;;21.33;20.67;;;;;14.42;54.32;101221.19;4955049;28;45463;-54
2023/04/30 02:03:02;;;;;;;;;26.00;22.33;;;;;14.35;54.24;101220.59;4936311;28;45630;-57
2023/04/30 02:05:27;;;;;;;;;25.00;23.33;;;;;14.36;53.97;101228.44;4937082;28;45363;-57
2023/04/30 02:07:53;;;;;;;;;23.67;22.33;;;;;14.33;54.59;101225.06;4936983;28;45658;-54
2023/04/30 02:10:21;;;;;;;;;24.67;24.67;;;;;14.32;54.88;101229.50;4951984;28;45324;-56
2023/04/30 02:12:47;;;;;;;;;24.00;22.00;;;;;14.32;54.52;101237.44;4936807;28;46495;-52
2023/04/30 02:15:12;;;;;;;;;23.67;22.33;;;;;14.31;54.26;101234.84;4939976;28;45570;-56
2023/04/30 02:17:38;;;;;;;;;28.67;27.33;;;;;14.27;54.20;101234.13;4959656;28;45479;-55
2023/04/30 02:20:04;;;;;;;;;21.33;21.33;;;;;14.23;54.73;101229.84;4959737;28;45586;-56
2023/04/30 02:22:29;;;;;;;;;21.33;21.33;;;;;14.24;54.31;101228.97;4959461;28;46040;-56
2023/04/30 02:24:56;;;;;;;;;22.33;20.67;;;;;14.24;54.29;101233.38;4959573;28;45428;-56
2023/04/30 02:27:23;;;;;;;;;22.00;21.00;;;;;14.25;54.31;101232.47;4959837;28;45481;-52
2023/04/30 02:29:48;;;;;;;;;21.67;19.67;;;;;14.26;54.14;101231.53;4959483;28;45359;-56
2023/04/30 02:32:14;;;;;;;;;23.33;23.33;;;;;14.26;54.42;101232.38;4940645;28;45468;-55
2023/04/30 02:34:40;;;;;;;;;24.00;23.67;;;;;14.27;55.11;101235.91;4940421;28;45686;-55
2023/04/30 02:37:06;;;;;;;;;19.67;18.67;;;;;14.24;54.29;101234.25;4939930;28;45467;-56
2023/04/30 02:39:31;;;;;;;;;19.00;18.67;;;;;14.23;54.55;101236.94;4940086;28;45588;-54
2023/04/30 02:41:57;;;;;;;;;22.33;22.33;;;;;14.21;54.79;101230.84;4940517;28;45481;-56
2023/04/30 02:44:22;;;;;;;;;21.00;17.67;;;;;14.24;54.90;101236.00;4939837;28;45510;-55
2023/04/30 02:46:48;;;;;;;;;16.00;15.00;;;;;14.25;54.24;101238.59;4940002;28;45460;-56
2023/04/30 02:49:13;;;;;;;;;23.67;23.00;;;;;14.27;54.04;101238.56;4940293;28;45352;-56
2023/04/30 02:51:38;;;;;;;;;21.33;19.67;;;;;14.24;53.99;101242.19;4941835;28;45569;-56
2023/04/30 02:54:04;;;;;;;;;24.67;21.67;;;;;14.21;54.87;101237.03;4958934;28;47722;-55
2023/04/30 02:56:29;;;;;;;;;23.33;21.33;;;;;14.20;54.84;101235.28;4959054;28;45906;-56
2023/04/30 02:58:54;;;;;;;;;21.67;17.67;;;;;14.17;54.84;101235.41;4959062;28;45454;-53
2023/04/30 03:01:20;;;;;;;;;21.00;20.00;;;;;14.17;55.15;101235.41;4957716;28;48264;-55
2023/04/30 03:03:45;;;;;;;;;19.33;19.33;;;;;14.16;54.46;101233.69;4958019;28;45355;-56
2023/04/30 03:06:10;;;;;;;;;21.33;19.00;;;;;14.18;54.52;101230.97;4958910;28;45430;-57
2023/04/30 03:08:36;;;;;;;;;23.67;20.33;;;;;14.14;54.69;101227.59;4958937;28;45453;-57
2023/04/30 03:11:01;;;;;;;;;17.33;15.67;;;;;14.17;54.84;101223.97;4958679;28;48839;-56
2023/04/30 03:13:27;;;;;;;;;18.67;18.00;;;;;14.10;55.21;101210.13;4958437;28;49793;-56
2023/04/30 03:15:59;;;;;;;;;21.33;18.67;;;;;14.08;54.43;101218.13;4958919;28;45464;-55
2023/04/30 03:18:26;;;;;;;;;25.67;22.00;;;;;14.10;54.44;101225.97;4957889;28;45501;-55
2023/04/30 03:20:51;;;;;;;;;21.67;18.67;;;;;14.06;55.06;101224.41;4957140;28;45497;-56
2023/04/30 03:23:16;;;;;;;;;17.00;17.00;;;;;14.07;55.14;101220.81;4957252;28;59537;-54
2023/04/30 03:25:42;;;;;;;;;18.67;16.67;;;;;14.08;54.81;101219.91;4947023;28;45513;-55
2023/04/30 03:28:07;;;;;;;;;20.33;18.00;;;;;14.07;54.32;101224.31;4939321;28;45654;-54
2023/04/30 03:30:32;;;;;;;;;22.67;22.67;;;;;14.07;54.78;101212.88;4939164;28;46078;-56
2023/04/30 03:32:58;;;;;;;;;17.33;17.00;;;;;14.05;55.00;101218.25;4939206;28;45399;-56
2023/04/30 03:35:23;;;;;;;;;22.67;21.00;;;;;14.02;55.02;101218.34;4939218;28;45552;-54
2023/04/30 03:37:48;;;;;;;;;26.67;26.33;;;;;13.99;54.80;101221.13;4939371;28;45649;-55
2023/04/30 03:40:14;;;;;;;;;25.67;25.67;;;;;13.97;55.23;101217.69;4942189;28;45932;-54
2023/04/30 03:42:39;;;;;;;;;21.33;19.67;;;;;13.98;54.80;101227.34;4939400;28;45852;-54
2023/04/30 03:45:05;;;;;;;;;28.00;24.00;;;;;13.97;55.58;101223.00;4938693;28;48369;-56
2023/04/30 03:47:30;;;;;;;;;33.67;31.00;;;;;13.96;55.46;101217.75;4939116;28;45368;-54
2023/04/30 03:49:56;;;;;;;;;24.67;23.00;;;;;13.97;55.58;101219.47;4938620;28;45351;-54
2023/04/30 03:52:21;;;;;;;;;24.00;23.67;;;;;13.96;55.02;101218.59;4938538;28;55523;-54
2023/04/30 03:54:47;;;;;;;;;28.00;25.67;;;;;13.98;55.86;101221.19;4938651;28;45451;-55
2023/04/30 03:57:12;;;;;;;;;30.00;27.00;;;;;13.97;55.25;101220.34;4942073;28;45497;-57
2023/04/30 03:59:39;;;;;;;;;31.00;28.33;;;;;13.95;55.03;101218.69;4952306;28;46140;-55
2023/04/30 04:02:05;;;;;;;;;26.33;25.33;;;;;13.94;55.47;101212.50;4958034;28;45438;-53
2023/04/30 04:04:31;;;;;;;;;28.00;28.00;;;;;13.93;55.30;101209.00;4958090;28;45460;-56
2023/04/30 04:06:56;;;;;;;;;19.67;18.33;;;;;13.93;56.14;101211.66;4958082;28;45677;-55
2023/04/30 04:09:21;;;;;;;;;31.00;25.67;;;;;13.93;55.45;101216.09;4957856;28;46957;-54
2023/04/30 04:11:47;;;;;;;;;25.00;21.33;;;;;13.89;55.87;101214.50;4957013;28;57462;-54
2023/04/30 04:14:12;;;;;;;;;28.00;26.33;;;;;13.89;55.92;101215.34;4957009;28;45467;-53
2023/04/30 04:16:38;;;;;;;;;28.33;27.67;;;;;13.85;56.23;101213.72;4957971;28;45468;-56
2023/04/30 04:19:03;;;;;;;;;28.33;28.33;;;;;13.87;55.98;101211.03;4957956;28;46548;-55
2023/04/30 04:21:28;;;;;;;;;34.00;27.33;;;;;13.87;55.83;101218.97;4957588;28;45458;-55
2023/04/30 04:23:54;;;;;;;;;27.67;27.00;;;;;13.84;56.74;101206.75;4948297;28;45544;-55
2023/04/30 04:26:20;;;;;;;;;28.67;28.00;;;;;13.84;55.97;101209.38;4949917;28;45430;-55
2023/04/30 04:28:46;;;;;;;;;28.33;27.33;;;;;13.81;56.77;101211.25;4938250;28;45633;-55
2023/04/30 04:31:12;;;;;;;;;30.67;28.33;;;;;13.86;56.27;101215.47;4938250;28;45352;-56
2023/04/30 04:33:37;;;;;;;;;32.33;30.67;;;;;13.85;56.70;101212.88;4953144;28;45566;-52
2023/04/30 04:36:03;;;;;;;;;30.00;27.67;;;;;13.78;57.00;101212.28;4937559;28;46653;-56
2023/04/30 04:38:29;;;;;;;;;28.00;27.00;;;;;13.81;56.98;101216.53;4937809;28;46327;-53
2023/04/30 04:40:55;;;;;;;;;33.33;28.00;;;;;13.81;56.61;101214.78;4942641;28;45431;-57
2023/04/30 04:43:21;;;;;;;;;32.67;30.67;;;;;13.81;56.98;101211.25;4956412;28;45368;-56
2023/04/30 04:45:46;;;;;;;;;29.33;28.67;;;;;13.80;57.04;101220.13;4956586;28;45606;-54
2023/04/30 04:48:12;;;;;;;;;31.67;31.00;;;;;13.79;57.24;101213.13;4957099;28;45463;-56
2023/04/30 04:50:38;;;;;;;;;29.33;28.00;;;;;13.77;56.49;101221.09;4957401;28;45713;-57
2023/04/30 04:53:03;;;;;;;;;31.67;29.67;;;;;13.77;56.99;101229.03;4957569;28;45434;-56
2023/04/30 04:55:28;;;;;;;;;30.67;30.67;;;;;13.79;57.39;101235.13;4957210;28;45843;-55
2023/04/30 04:57:54;;;;;;;;;32.67;29.00;;;;;13.80;57.74;101226.28;4957092;28;45529;-55
2023/04/30 05:00:21;;;;;;;;;30.33;29.00;;;;;13.83;57.44;101225.28;4954623;28;54736;-55
2023/04/30 05:02:46;;;;;;;;;32.33;30.00;;;;;13.84;57.36;101227.03;4959110;28;45610;-56
2023/04/30 05:05:11;;;;;;;;;28.33;27.00;;;;;13.85;57.46;101224.31;4956934;28;45320;-56
2023/04/30 05:07:37;;;;;;;;;31.33;30.33;;;;;13.81;57.63;101219.19;4937522;28;46330;-56
2023/04/30 05:10:02;;;;;;;;;40.00;33.33;;;;;13.83;57.52;101227.94;4937801;28;45352;-54
2023/04/30 05:12:28;;;;;;;;;32.67;30.67;;;;;13.81;57.61;101228.00;4937844;28;45491;-55
2023/04/30 05:14:53;;;;;;;;;33.00;31.67;;;;;13.84;57.49;101241.09;4937122;28;52607;-54
2023/04/30 05:17:18;;;;;;;;;30.67;30.33;;;;;13.82;57.58;101236.81;4937032;28;60460;-53
2023/04/30 05:19:46;;;;;;;;;33.33;31.00;;;;;13.81;57.76;101238.59;4937662;28;45443;-55
2023/04/30 05:22:11;;;;;;;;;31.33;30.67;;;;;13.83;57.45;101241.16;4937527;28;45410;-55
2023/04/30 05:24:37;;;;;;;;;34.67;33.33;;;;;13.82;57.42;101240.28;4937552;28;45447;-54
2023/04/30 05:27:03;;;;;;;;;33.33;30.00;;;;;13.81;57.90;101243.88;4951204;28;45465;-52
2023/04/30 05:29:29;;;;;;;;;31.33;31.00;;;;;13.80;57.57;101254.50;4956860;28;45487;-55
2023/04/30 05:31:54;;;;;;;;;30.67;29.67;;;;;13.79;57.27;101251.00;4956721;28;45902;-56
2023/04/30 05:34:20;;;;;;;;;31.00;30.33;;;;;13.72;57.41;101243.34;4955859;28;45440;-54
2023/04/30 05:36:45;;;;;;;;;34.00;32.67;;;;;13.76;57.73;101244.97;4956634;28;46523;-55
2023/04/30 05:39:10;;;;;;;;;34.67;30.67;;;;;13.75;57.54;101245.88;4956636;28;45515;-55
2023/04/30 05:41:36;;;;;;;;;34.67;32.00;;;;;13.77;57.34;101244.91;4956713;28;45450;-54
2023/04/30 05:44:03;;;;;;;;;38.33;31.67;;;;;13.79;57.54;101255.44;4957095;28;45479;-57
2023/04/30 05:46:29;;;;;;;;;32.67;31.00;;;;;13.78;57.86;101254.56;4953675;28;46111;-55
2023/04/30 05:48:54;;;;;;;;;35.33;33.33;;;;;13.80;57.73;101255.34;4956334;28;45650;-55
2023/04/30 05:51:19;;;;;;;;;30.00;28.67;;;;;13.81;57.76;101248.28;4956884;28;45506;-54
2023/04/30 05:53:45;;;;;;;;;36.33;33.00;;;;;13.79;57.65;101251.00;4956932;28;45569;-55
2023/04/30 05:56:11;;;;;;;;;40.00;34.33;;;;;13.79;57.84;101260.72;4956729;28;46096;-56
2023/04/30 05:58:36;;;;;;;;;35.00;32.33;;;;;13.78;57.45;101253.69;4956512;28;45524;-57
2023/04/30 06:01:02;;;;;;;;;34.33;29.67;;;;;13.76;57.86;101251.13;4956773;28;45446;-54
2023/04/30 06:03:27;;;;;;;;;37.00;33.00;;;;;13.76;58.05;101256.41;4956909;28;45478;-57
2023/04/30 06:05:53;;;;;;;;;35.00;33.33;;;;;13.76;57.63;101250.25;4956426;28;45435;-54
2023/04/30 06:08:19;;;;;;;;;35.33;32.67;;;;;13.71;57.87;101253.06;4956391;28;45492;-54
2023/04/30 06:10:45;;;;;;;;;34.67;31.33;;;;;13.74;58.35;101258.25;4956686;28;45395;-53
2023/04/30 06:13:10;;;;;;;;;35.00;31.00;;;;;13.76;58.01;101253.75;4952252;28;45564;-54
2023/04/30 06:15:36;;;;;;;;;36.33;32.67;;;;;13.75;57.65;101262.59;4937189;28;46297;-53
2023/04/30 06:18:01;;;;;;;;;37.00;32.67;;;;;13.74;57.71;101255.59;4937090;28;45519;-54
2023/04/30 06:20:27;;;;;;;;;32.00;30.00;;;;;13.73;57.69;101260.94;4937323;28;45490;-54
2023/04/30 06:22:52;;;;;;;;;36.67;32.00;;;;;13.72;57.62;101252.13;4941686;28;45570;-53
2023/04/30 06:25:18;;;;;;;;;34.33;28.33;;;;;13.75;57.78;101262.59;4956573;28;46008;-53
2023/04/30 06:27:44;;;;;;;;;38.25;33.00;;;;;13.74;57.60;101257.38;4956378;28;45465;-55
2023/04/30 06:30:09;;;;;;;;;36.75;32.25;;;;;13.73;58.05;101260.94;4956615;28;45405;-55
2023/04/30 06:32:35;;;;;;;;;35.67;32.67;;;;;13.75;58.16;101257.31;4956420;28;45598;-54
2023/04/30 06:35:00;;;;;;;;;33.25;31.75;;;;;13.77;58.05;101262.56;4955820;28;45435;-55
2023/04/30 06:37:26;;;;;;;;;35.25;32.75;;;;;13.79;57.79;101258.94;4954320;28;45459;-54
2023/04/30 06:39:51;;;;;;;;;35.00;32.50;;;;;13.82;58.23;101258.81;4941666;28;45964;-52
2023/04/30 06:42:16;;;;;;;;;39.00;33.50;;;;;13.87;57.94;101266.56;4932739;28;45739;-54
2023/04/30 06:44:42;;;;;;;;;38.75;33.75;;;;;13.87;57.85;101266.56;4941043;28;45582;-56
2023/04/30 06:47:07;;;;;;;;;37.75;33.25;;;;;13.89;57.84;101262.94;4955599;28;45570;-55
2023/04/30 06:49:32;;;;;;;;;41.00;34.00;;;;;13.92;57.64;101262.81;4954441;28;45492;-52
2023/04/30 06:51:58;;;;;;;;;33.33;31.33;;;;;13.89;57.47;101255.00;4954326;28;45648;-54
2023/04/30 06:54:25;;;;;;;;;36.50;31.75;;;;;13.91;57.86;101260.22;4955440;28;45430;-55
2023/04/30 06:56:51;;;;;;;;;42.50;35.00;;;;;13.89;57.75;101256.81;4955670;28;45447;-52
2023/04/30 06:59:16;;;;;;;;;37.67;34.00;;;;;13.92;57.94;101259.31;4955627;28;45466;-57
2023/04/30 07:01:42;;;;;;;;;40.50;34.75;;;;;13.92;58.00;101254.03;4957552;28;45613;-56
2023/04/30 07:04:07;;;;;;;;;36.00;33.00;;;;;13.98;57.57;101260.88;4944915;28;47213;-51
2023/04/30 07:06:32;;;;;;;;;37.75;34.25;;;;;13.95;58.30;101251.28;4951605;28;45533;-51
2023/04/30 07:08:58;;;;;;;;;40.25;34.50;;;;;13.99;57.60;101252.00;4957173;28;45549;-55
2023/04/30 07:11:23;;;;;;;;;41.75;33.75;;;;;13.94;57.95;101241.59;4958114;28;45610;-55
2023/04/30 07:13:49;;;;;;;;;41.00;33.67;;;;;13.99;57.66;101252.00;4959117;28;46157;-49
2023/04/30 07:16:15;;;;;;;;;39.00;34.00;;;;;13.96;58.13;101252.13;4959184;28;45452;-55
2023/04/30 07:18:41;;;;;;;;;41.50;35.50;;;;;13.95;57.28;101255.69;4959078;28;45478;-52
2023/04/30 07:21:07;;;;;;;;;38.00;34.33;;;;;13.92;57.64;101248.75;4959133;28;45569;-53
2023/04/30 07:23:33;;;;;;;;;42.00;36.00;;;;;13.87;57.75;101246.28;4959008;28;45431;-53
2023/04/30 07:25:58;;;;;;;;;39.67;35.00;;;;;13.95;57.78;101253.06;4958043;28;45498;-63
2023/04/30 07:28:23;;;;;;;;;42.00;36.00;;;;;13.94;57.71;101252.16;4958267;28;45431;-53
2023/04/30 07:30:48;;;;;;;;;41.50;35.75;;;;;13.98;57.89;101267.00;4959097;28;45630;-53
2023/04/30 07:33:14;;;;;;;;;47.75;36.25;;;;;14.01;58.22;101266.88;4940806;28;56069;-54
2023/04/30 07:35:39;;;;;;;;;39.50;34.00;;;;;14.03;58.10;101266.84;4939177;28;47712;-55
2023/04/30 07:38:04;;;;;;;;;35.25;33.50;;;;;14.06;57.95;101267.56;4939475;28;45340;-49
2023/04/30 07:40:30;;;;;;;;;42.00;34.00;;;;;14.11;58.14;101276.19;4939669;28;45490;-52
2023/04/30 07:42:55;;;;;;;;;37.00;33.33;;;;;14.12;58.16;101269.13;4940040;28;46372;-50
2023/04/30 07:45:21;;;;;;;;;47.50;37.00;;;;;14.17;57.70;101277.72;4939318;28;45452;-56
2023/04/30 07:47:47;;;;;;;;;42.00;36.50;;;;;14.17;57.53;101272.44;4955196;28;46712;-56
2023/04/30 07:50:13;;;;;;;;;40.50;35.00;;;;;14.17;57.48;101272.44;4958912;28;45495;-52
2023/04/30 07:52:39;;;;;;;;;40.75;36.50;;;;;14.14;57.53;101265.50;4957155;28;47770;-56
2023/04/30 07:55:05;;;;;;;;;45.50;36.25;;;;;14.13;57.28;101276.13;4958488;28;45474;-55
2023/04/30 07:57:30;;;;;;;;;39.75;35.25;;;;;14.11;57.91;101268.25;4957584;28;45700;-56
2023/04/30 07:59:56;;;;;;;;;46.25;39.00;;;;;14.12;58.41;101263.81;4958579;28;45482;-56
2023/04/30 08:02:21;;;;;;;;;46.00;36.50;;;;;14.11;57.85;101272.69;4957065;28;45544;-54
2023/04/30 08:04:47;;;;;;;;;41.25;36.00;;;;;14.09;58.18;101263.94;4958531;28;45506;-55
2023/04/30 08:07:14;;;;;;;;;44.75;36.75;;;;;14.13;58.30;101270.81;4958635;28;45408;-56
2023/04/30 08:09:40;;;;;;;;;38.25;33.25;;;;;14.20;58.06;101266.16;4952475;28;45400;-56
2023/04/30 08:12:05;;;;;;;;;40.00;34.75;;;;;14.27;58.11;101265.88;4937740;28;46305;-57
2023/04/30 08:14:31;;;;;;;;;47.00;36.75;;;;;14.32;58.19;101265.69;4951275;28;45314;-54
2023/04/30 08:16:58;;;;;;;;;41.75;36.00;;;;;14.37;57.94;101263.69;4957550;28;45379;-60
2023/04/30 08:19:23;;;;;;;;;38.25;34.25;;;;;14.42;57.84;101266.16;4957967;28;45618;-59
2023/04/30 08:21:49;;;;;;;;;42.25;36.75;;;;;14.46;57.66;101251.91;4954261;28;45974;-58
2023/04/30 08:24:14;;;;;;;;;39.50;34.75;;;;;14.51;57.73;101255.22;4957872;28;45456;-59
2023/04/30 08:26:39;;;;;;;;;40.00;34.00;;;;;14.55;57.57;101255.03;4957817;28;45486;-56
2023/04/30 08:29:07;;;;;;;;;42.00;36.00;;;;;14.60;57.15;101251.34;4957555;28;48298;-57
2023/04/30 08:31:32;;;;;;;;;40.00;36.25;;;;;14.62;57.88;101253.00;4957456;28;45454;-57
2023/04/30 08:33:58;;;;;;;;;39.00;35.00;;;;;14.67;57.02;101252.81;4953794;28;45379;-56
2023/04/30 08:36:23;;;;;;;;;37.00;33.75;;;;;14.68;57.58;101252.75;4957179;28;45593;-56
2023/04/30 08:38:48;;;;;;;;;35.50;33.00;;;;;14.72;57.85;101251.72;4957779;28;45645;-57
2023/04/30 08:41:15;;;;;;;;;39.75;36.00;;;;;14.75;57.72;101251.56;4957158;28;52641;-57
2023/04/30 08:43:41;;;;;;;;;46.25;36.25;;;;;14.76;57.28;101250.63;4953849;28;45408;-57
2023/04/30 08:46:07;;;;;;;;;41.75;36.25;;;;;14.78;58.17;101256.75;4954494;28;45518;-59
2023/04/30 08:48:33;;;;;;;;;40.25;34.25;;;;;14.82;56.74;101253.97;4955830;28;45559;-59
2023/04/30 08:51:02;;;;;;;;;34.33;31.33;;;;;14.86;57.14;101250.25;4957164;28;45490;-60
2023/04/30 08:53:30;;;;;;;;;38.00;33.00;;;;;14.84;56.45;101252.97;4957370;28;45509;-59
2023/04/30 08:55:55;;;;;;;;;31.33;30.00;;;;;14.82;57.28;101249.50;4957041;28;45415;-59
2023/04/30 08:58:21;;;;;;;;;29.33;27.33;;;;;14.81;56.97;101250.44;4957104;28;45601;-61
2023/04/30 09:00:46;;;;;;;;;34.00;32.00;;;;;14.82;57.00;101249.50;4957175;28;46401;-59
2023/04/30 09:03:12;;;;;;;;;37.33;34.00;;;;;14.87;57.01;101241.38;4957084;28;45466;-59
2023/04/30 09:05:37;;;;;;;;;38.33;33.00;;;;;14.92;57.08;101245.56;4957148;28;45331;-58
2023/04/30 09:08:03;;;;;;;;;31.33;31.00;;;;;14.99;57.17;101248.78;4957299;28;45548;-59
2023/04/30 09:10:31;;;;;;;;;32.67;27.00;;;;;15.04;57.11;101254.75;4971977;28;45438;-59
2023/04/30 09:13:01;;;;;;;;;40.00;31.33;;;;;15.07;56.94;101254.63;4956990;28;45526;-60
2023/04/30 09:15:28;;;;;;;;;33.00;30.33;;;;;15.10;56.96;101245.66;4956986;28;45323;-58
2023/04/30 09:18:10;;;;;;;;;35.33;30.33;;;;;15.14;56.70;101239.31;4956967;28;45682;-60
2023/04/30 09:20:35;;;;;;;;;36.33;31.33;;;;;15.18;56.26;101246.22;4956806;28;46108;-59
2023/04/30 09:23:10;;;;;;;;;34.33;31.00;;;;;15.20;56.16;101245.19;4956709;28;45513;-60
2023/04/30 09:25:42;;;;;;;;;29.00;28.00;;;;;15.20;55.05;101250.50;4957001;28;45430;-59
2023/04/30 09:28:08;;;;;;;;;34.33;31.00;;;;;15.24;56.27;101243.28;4956742;28;45501;-59
2023/04/30 09:30:33;;;;;;;;;34.33;32.33;;;;;15.28;55.57;101241.34;4956784;28;45469;-58
2023/04/30 09:32:59;;;;;;;;;32.67;30.67;;;;;15.28;54.82;101236.91;4956462;28;45415;-60
2023/04/30 09:35:35;;;;;;;;;32.67;30.67;;;;;15.34;55.37;101235.78;4956816;28;45461;-60
2023/04/30 09:38:01;;;;;;;;;33.33;31.67;;;;;15.39;55.27;101237.31;4956732;28;45367;-59
2023/04/30 09:40:41;;;;;;;;;31.00;29.00;;;;;15.36;55.44;101225.97;4956504;28;45335;-59
2023/04/30 09:43:08;;;;;;;;;30.67;30.00;;;;;15.45;55.90;101234.38;4956834;28;47489;-60
2023/04/30 09:45:46;;;;;;;;;29.00;27.00;;;;;15.44;55.65;101231.78;4956535;28;45332;-59
2023/04/30 09:48:14;;;;;;;;;34.00;30.67;;;;;15.41;54.77;101223.97;4956684;28;45546;-59
2023/04/30 09:50:40;;;;;;;;;28.00;26.33;;;;;15.47;55.06;101236.94;4956453;28;46196;-59
2023/04/30 09:53:16;;;;;;;;;33.00;30.67;;;;;15.50;54.69;101238.59;4956331;28;45458;-59
2023/04/30 09:55:44;;;;;;;;;28.33;27.00;;;;;15.52;54.82;101242.88;4955591;28;45642;-59
2023/04/30 09:58:11;;;;;;;;;29.67;26.33;;;;;15.58;54.65;101231.13;4956449;28;45546;-59
2023/04/30 10:00:38;;;;;;;;;29.33;28.00;;;;;15.62;54.84;101230.09;4956326;28;46185;-60
2023/04/30 10:03:09;;;;;;;;;31.33;30.33;;;;;15.66;54.75;101229.00;4956138;28;45665;-59
2023/04/30 10:05:37;;;;;;;;;31.00;27.00;;;;;15.67;54.28;101226.28;4956223;28;45379;-59
2023/04/30 10:08:06;;;;;;;;;29.00;25.00;;;;;15.72;54.88;101215.50;4956324;28;45431;-59
2023/04/30 10:10:31;;;;;;;;;29.00;28.00;;;;;15.73;54.47;101214.56;4955988;28;45402;-59
2023/04/30 10:13:02;;;;;;;;;27.33;27.33;;;;;15.75;54.50;101212.69;4955994;28;45455;-59
2023/04/30 10:15:33;;;;;;;;;25.00;25.00;;;;;15.83;55.13;101212.34;4954959;28;45403;-59
2023/04/30 10:18:02;;;;;;;;;28.33;26.00;;;;;15.90;54.54;101205.78;4956176;28;45381;-59
2023/04/30 10:20:30;;;;;;;;;29.00;28.67;;;;;15.96;53.96;101194.91;4956071;28;45949;-59
2023/04/30 10:22:56;;;;;;;;;27.00;24.33;;;;;16.02;53.99;101199.06;4956015;28;45498;-59
2023/04/30 10:25:22;;;;;;;;;19.67;19.67;;;;;16.06;54.25;101193.50;4955961;28;45394;-59
2023/04/30 10:27:47;;;;;;;;;20.00;18.00;;;;;16.11;54.51;101202.09;4955977;28;45579;-59
2023/04/30 10:30:14;;;;;;;;;18.33;15.67;;;;;16.09;53.25;101196.03;4955830;28;45455;-59
2023/04/30 10:33:02;;;;;;;;;22.67;19.67;;;;;16.12;53.59;101195.03;4954812;28;45401;-59
2023/04/30 10:35:32;;;;;;;;;18.00;15.33;;;;;16.20;53.57;101195.50;4957804;28;45430;-58
2023/04/30 10:38:14;;;;;;;;;21.67;20.67;;;;;16.22;53.10;101198.06;4959289;28;45423;-59
2023/04/30 10:40:39;;;;;;;;;17.00;15.33;;;;;16.25;53.15;101179.34;4959342;28;45447;-59
2023/04/30 10:43:05;;;;;;;;;17.67;15.00;;;;;16.31;53.78;101187.00;4959790;28;45419;-60
2023/04/30 10:45:40;;;;;;;;;12.67;12.67;;;;;16.32;52.89;101178.09;4958309;28;45375;-59
2023/04/30 10:48:06;;;;;;;;;16.67;15.33;;;;;16.37;52.25;101184.03;4959286;28;45438;-58
2023/04/30 10:50:32;;;;;;;;;15.67;15.67;;;;;16.38;52.43;101183.09;4958955;28;46396;-59
2023/04/30 10:53:04;;;;;;;;;20.00;15.67;;;;;16.40;52.06;101178.56;4957819;28;45538;-59
2023/04/30 10:55:30;;;;;;;;;15.33;13.33;;;;;16.38;51.63;101172.47;4959197;28;45544;-58
2023/04/30 10:57:58;;;;;;;;;17.67;17.67;;;;;16.38;51.67;101168.97;4959157;28;45422;-59
2023/04/30 11:00:26;;;;;;;;;12.33;12.00;;;;;16.41;51.28;101174.13;4958750;28;46280;-59
2023/04/30 11:02:56;;;;;;;;;16.00;16.00;;;;;16.45;50.54;101171.25;4958652;28;45426;-59
2023/04/30 11:05:34;;;;;;;;;17.67;16.33;;;;;16.46;51.05;101164.97;4958976;28;45462;-59
2023/04/30 11:08:00;;;;;;;;;14.33;14.33;;;;;16.50;49.75;101163.06;4958999;28;45399;-59
2023/04/30 11:10:27;;;;;;;;;11.00;11.00;;;;;16.47;49.57;101169.38;4958901;28;46121;-59